Time;durP1;ratioP1;P1;durP2;ratioP2;P2;SDS_P1;SDS_P2;PMS_P1;PMS_P2;Temp;Humidity;BMP_temperature;BMP_pressure;BME280_temperature;BME280_humidity;BME280_pressure;Samples;Min_cycle;Max_cycle;Signal;HPM_P1;HPM_P2
2023/07/15 00:01:06;;;;;;;;;;;;;;;16.30;78.60;98047.06;2618580;28;19928;-84
2023/07/15 00:02:25;;;;;;;;;;;;;;;16.21;80.02;98038.75;2618717;28;20027;-83
2023/07/15 00:03:40;;;;;;;;;;;;;;;16.09;80.49;98040.31;2618447;28;19924;-83
2023/07/15 00:04:56;;;;;;;;;;;;;;;16.07;80.92;98042.19;2618764;28;19924;-83
2023/07/15 00:06:11;;;;;;;;;;;;;;;16.07;80.92;98033.44;2618338;28;19924;-84
2023/07/15 00:07:26;;;;;;;;;;;;;;;15.91;82.14;98036.91;2619412;28;19971;-84
2023/07/15 00:08:43;;;;;;;;;;;;;;;15.88;82.31;98036.22;2619054;28;19931;-83
2023/07/15 00:09:59;;;;;;;;;;;;;;;15.82;82.97;98046.16;2617970;28;19928;-83
2023/07/15 00:11:46;;;;;;;;;;;;;;;15.82;83.43;98043.53;2618561;28;20451;-84
2023/07/15 00:13:02;;;;;;;;;;;;;;;15.93;81.34;98045.63;2607001;28;19967;-83
2023/07/15 00:14:19;;;;;;;;;;;;;;;15.59;83.43;98043.97;2617157;28;19932;-86
2023/07/15 00:15:34;;;;;;;;;;;;;;;15.30;86.23;98043.78;2618547;28;19928;-83
2023/07/15 00:16:50;;;;;;;;;;;;;;;15.42;85.88;98043.09;2619076;28;19971;-84
2023/07/15 00:18:05;;;;;;;;;;;;;;;15.46;86.43;98041.16;2618459;28;20035;-84
2023/07/15 00:19:22;;;;;;;;;;;;;;;15.51;86.90;98039.13;2617989;28;20019;-83
2023/07/15 00:20:37;;;;;;;;;;;;;;;15.46;87.29;98038.50;2618696;28;20028;-83
2023/07/15 00:21:52;;;;;;;;;;;;;;;15.67;84.24;98039.97;2618183;28;20398;-83
2023/07/15 00:23:16;;;;;;;;;;;;;;;15.71;84.63;98039.81;2618318;28;20019;-83
2023/07/15 00:24:32;;;;;;;;;;;;;;;15.95;81.69;98038.47;2617809;28;19956;-83
2023/07/15 00:25:48;;;;;;;;;;;;;;;15.92;81.52;98033.38;2618653;28;19982;-83
2023/07/15 00:27:04;;;;;;;;;;;;;;;15.87;82.18;98035.34;2619416;28;19976;-85
2023/07/15 00:28:20;;;;;;;;;;;;;;;15.77;82.11;98039.44;2617713;28;19970;-85
2023/07/15 00:29:35;;;;;;;;;;;;;;;15.65;83.25;98033.94;2618811;28;19925;-86
2023/07/15 00:30:53;;;;;;;;;;;;;;;15.67;82.75;98031.19;2618692;28;19932;-85
2023/07/15 00:32:11;;;;;;;;;;;;;;;15.77;81.12;98031.53;2618770;28;19928;-85
2023/07/15 00:33:28;;;;;;;;;;;;;;;15.81;81.43;98027.81;2618657;28;19995;-85
2023/07/15 00:34:43;;;;;;;;;;;;;;;15.73;82.01;98024.72;2618622;28;20023;-85
2023/07/15 00:35:58;;;;;;;;;;;;;;;15.69;82.47;98029.31;2618847;28;20391;-85
2023/07/15 00:37:14;;;;;;;;;;;;;;;15.63;83.03;98030.50;2618648;28;20425;-83
2023/07/15 00:38:29;;;;;;;;;;;;;;;15.63;83.55;98038.41;2618882;28;20005;-83
2023/07/15 00:39:45;;;;;;;;;;;;;;;15.52;84.07;98033.75;2617911;28;20441;-83
2023/07/15 00:41:00;;;;;;;;;;;;;;;15.57;85.42;98040.53;2618322;28;19928;-84
2023/07/15 00:42:21;;;;;;;;;;;;;;;15.49;85.67;98033.06;2616906;28;20312;-85
2023/07/15 00:43:55;;;;;;;;;;;;;;;15.30;87.27;98039.34;2617007;28;20050;-85
2023/07/15 00:45:11;;;;;;;;;;;;;;;15.11;92.61;98040.34;2618634;28;20356;-85
2023/07/15 00:46:49;;;;;;;;;;;;;;;14.95;93.23;98040.28;2617798;28;19986;-84
2023/07/15 00:48:16;;;;;;;;;;;;;;;14.94;94.01;98043.84;2618213;28;19978;-85
2023/07/15 00:49:33;;;;;;;;;;;;;;;15.07;93.50;98027.41;2618360;28;19935;-85
2023/07/15 00:50:49;;;;;;;;;;;;;;;15.08;93.43;98032.56;2618073;28;20280;-86
2023/07/15 00:52:05;;;;;;;;;;;;;;;15.05;91.92;98035.38;2618963;28;19931;-85
2023/07/15 00:53:20;;;;;;;;;;;;;;;14.86;92.46;98032.00;2618989;28;19932;-85
2023/07/15 00:54:38;;;;;;;;;;;;;;;14.83;93.77;98036.50;2618091;28;19928;-85
2023/07/15 00:55:54;;;;;;;;;;;;;;;14.72;95.99;98028.31;2619131;28;19968;-85
2023/07/15 00:57:11;;;;;;;;;;;;;;;14.78;94.52;98032.41;2618655;28;20117;-85
2023/07/15 00:58:26;;;;;;;;;;;;;;;14.99;91.07;98033.06;2618108;28;20402;-83
2023/07/15 00:59:42;;;;;;;;;;;;;;;15.03;91.79;98036.41;2618775;28;19963;-84
2023/07/15 01:00:58;;;;;;;;;;;;;;;15.11;90.81;98042.09;2618714;28;20440;-83
2023/07/15 01:02:15;;;;;;;;;;;;;;;14.99;92.42;98038.34;2618028;28;19932;-84
2023/07/15 01:03:30;;;;;;;;;;;;;;;14.70;97.71;98038.03;2618406;28;19928;-84
2023/07/15 01:04:45;;;;;;;;;;;;;;;14.64;95.42;98038.34;2618872;28;19929;-83
2023/07/15 01:06:01;;;;;;;;;;;;;;;14.61;96.71;98038.50;2618387;28;20265;-83
2023/07/15 01:07:17;;;;;;;;;;;;;;;14.63;96.29;98034.00;2617984;28;19998;-83
2023/07/15 01:08:32;;;;;;;;;;;;;;;14.61;97.47;98035.88;2617522;28;19931;-83
2023/07/15 01:09:47;;;;;;;;;;;;;;;14.70;95.60;98043.31;2618557;28;20434;-83
2023/07/15 01:11:03;;;;;;;;;;;;;;;14.75;95.59;98041.31;2620841;28;20016;-84
2023/07/15 01:12:18;;;;;;;;;;;;;;;14.91;93.50;98046.66;2620347;28;19924;-83
2023/07/15 01:13:34;;;;;;;;;;;;;;;14.85;94.08;98048.75;2620066;28;19928;-84
2023/07/15 01:14:49;;;;;;;;;;;;;;;14.81;95.29;98041.00;2620370;28;19976;-83
2023/07/15 01:16:05;;;;;;;;;;;;;;;14.72;95.03;98035.34;2620154;28;19928;-83
2023/07/15 01:17:20;;;;;;;;;;;;;;;14.62;96.99;98032.31;2620085;28;19939;-83
2023/07/15 01:18:36;;;;;;;;;;;;;;;14.73;96.38;98043.19;2620695;28;20488;-83
2023/07/15 01:19:53;;;;;;;;;;;;;;;14.73;95.80;98043.19;2620337;28;19935;-83
2023/07/15 01:21:10;;;;;;;;;;;;;;;14.72;95.30;98038.84;2620294;28;19928;-83
2023/07/15 01:22:26;;;;;;;;;;;;;;;14.58;96.12;98033.41;2619861;28;19929;-83
2023/07/15 01:23:41;;;;;;;;;;;;;;;14.38;98.40;98033.47;2619534;28;20449;-83
2023/07/15 01:24:56;;;;;;;;;;;;;;;14.25;100.00;98030.63;2620280;28;19951;-83
2023/07/15 01:26:12;;;;;;;;;;;;;;;14.33;100.00;98032.88;2620446;28;20426;-83
2023/07/15 01:27:27;;;;;;;;;;;;;;;14.24;100.00;98030.69;2620413;28;19933;-87
2023/07/15 01:28:43;;;;;;;;;;;;;;;14.34;100.00;98033.69;2620197;28;19924;-83
2023/07/15 01:29:58;;;;;;;;;;;;;;;14.37;100.00;98021.25;2620682;28;19964;-83
2023/07/15 01:31:14;;;;;;;;;;;;;;;14.51;100.00;98023.16;2619883;28;19924;-83
2023/07/15 01:32:30;;;;;;;;;;;;;;;14.49;100.00;98022.38;2619969;28;20418;-83
2023/07/15 01:33:45;;;;;;;;;;;;;;;14.37;100.00;98018.59;2619121;28;19932;-83
2023/07/15 01:35:03;;;;;;;;;;;;;;;14.30;100.00;98021.63;2620597;28;19932;-83
2023/07/15 01:36:19;;;;;;;;;;;;;;;14.27;100.00;98023.50;2620309;28;20273;-83
2023/07/15 01:37:34;;;;;;;;;;;;;;;14.30;100.00;98022.47;2619587;28;20090;-83
2023/07/15 01:38:50;;;;;;;;;;;;;;;14.23;100.00;98027.19;2620658;28;19928;-83
2023/07/15 01:40:09;;;;;;;;;;;;;;;14.29;100.00;98022.56;2620060;28;20016;-83
2023/07/15 01:41:25;;;;;;;;;;;;;;;14.22;100.00;98019.38;2619207;28;19960;-83
2023/07/15 01:42:40;;;;;;;;;;;;;;;14.41;100.00;98017.50;2618146;28;19928;-83
2023/07/15 01:43:55;;;;;;;;;;;;;;;14.32;100.00;98033.81;2619484;28;19963;-83
2023/07/15 01:45:11;;;;;;;;;;;;;;;14.41;100.00;98028.03;2620411;28;20417;-83
2023/07/15 01:46:27;;;;;;;;;;;;;;;14.46;100.00;98038.34;2620022;28;20050;-83
2023/07/15 01:47:42;;;;;;;;;;;;;;;14.29;100.00;98041.00;2620369;28;20372;-83
2023/07/15 01:49:02;;;;;;;;;;;;;;;14.34;100.00;98047.75;2620212;28;19932;-83
2023/07/15 01:50:18;;;;;;;;;;;;;;;14.32;100.00;98040.84;2619823;28;19939;-83
2023/07/15 01:51:37;;;;;;;;;;;;;;;14.41;100.00;98043.84;2619555;28;19929;-83
2023/07/15 01:52:52;;;;;;;;;;;;;;;14.40;100.00;98043.94;2620367;28;19928;-83
2023/07/15 01:54:07;;;;;;;;;;;;;;;14.34;100.00;98044.25;2620048;28;19939;-83
2023/07/15 01:55:23;;;;;;;;;;;;;;;14.47;100.00;98040.06;2619816;28;19939;-83
2023/07/15 01:56:41;;;;;;;;;;;;;;;14.54;100.00;98038.84;2619635;28;20502;-83
2023/07/15 01:57:56;;;;;;;;;;;;;;;14.60;100.00;98040.31;2618572;28;20014;-83
2023/07/15 01:59:12;;;;;;;;;;;;;;;14.60;100.00;98042.06;2619684;28;19928;-82
2023/07/15 02:00:27;;;;;;;;;;;;;;;14.65;100.00;98042.69;2619788;28;19932;-83
2023/07/15 02:01:44;;;;;;;;;;;;;;;14.52;100.00;98047.72;2619571;28;19975;-83
2023/07/15 02:02:59;;;;;;;;;;;;;;;14.33;100.00;98038.13;2620023;28;19924;-83
2023/07/15 02:04:14;;;;;;;;;;;;;;;14.40;100.00;98043.94;2619476;28;19931;-83
2023/07/15 02:05:30;;;;;;;;;;;;;;;14.41;100.00;98046.47;2619669;28;20400;-83
2023/07/15 02:06:45;;;;;;;;;;;;;;;14.22;100.00;98045.72;2620146;28;20371;-83
2023/07/15 02:08:01;;;;;;;;;;;;;;;14.12;100.00;98048.78;2619275;28;19967;-84
2023/07/15 02:09:16;;;;;;;;;;;;;;;14.15;100.00;98045.16;2619642;28;19932;-83
2023/07/15 02:10:32;;;;;;;;;;;;;;;14.23;100.00;98044.78;2619828;28;19928;-83
2023/07/15 02:11:47;;;;;;;;;;;;;;;14.04;100.00;98043.06;2620403;28;19933;-83
2023/07/15 02:13:03;;;;;;;;;;;;;;;13.67;100.00;98043.00;2620010;28;20102;-83
2023/07/15 02:14:18;;;;;;;;;;;;;;;13.61;100.00;98045.09;2619679;28;20038;-83
2023/07/15 02:15:33;;;;;;;;;;;;;;;13.59;100.00;98039.91;2619003;28;19929;-83
2023/07/15 02:16:49;;;;;;;;;;;;;;;13.60;100.00;98041.63;2619695;28;20014;-83
2023/07/15 02:18:04;;;;;;;;;;;;;;;13.61;100.00;98037.19;2620274;28;20277;-83
2023/07/15 02:19:20;;;;;;;;;;;;;;;13.64;100.00;98032.66;2619313;28;19935;-83
2023/07/15 02:20:37;;;;;;;;;;;;;;;13.51;100.00;98040.28;2618037;28;19928;-83
2023/07/15 02:21:54;;;;;;;;;;;;;;;13.47;100.00;98035.22;2616594;28;19935;-83
2023/07/15 02:23:09;;;;;;;;;;;;;;;13.51;100.00;98031.50;2618981;28;20299;-83
2023/07/15 02:24:24;;;;;;;;;;;;;;;13.64;100.00;98035.28;2618587;28;19929;-83
2023/07/15 02:25:40;;;;;;;;;;;;;;;13.61;100.00;98030.16;2619179;28;19930;-83
2023/07/15 02:26:55;;;;;;;;;;;;;;;13.61;100.00;98029.28;2619698;28;20375;-83
2023/07/15 02:28:11;;;;;;;;;;;;;;;13.78;100.00;98033.75;2619610;28;20394;-83
2023/07/15 02:29:26;;;;;;;;;;;;;;;14.03;100.00;98029.97;2620056;28;19990;-83
2023/07/15 02:30:41;;;;;;;;;;;;;;;14.04;100.00;98034.28;2619815;28;19974;-83
2023/07/15 02:31:57;;;;;;;;;;;;;;;13.99;100.00;98029.25;2619671;28;20461;-83
2023/07/15 02:33:12;;;;;;;;;;;;;;;14.06;100.00;98032.44;2620014;28;19924;-84
2023/07/15 02:34:28;;;;;;;;;;;;;;;14.03;100.00;98035.22;2619286;28;20301;-83
2023/07/15 02:35:43;;;;;;;;;;;;;;;13.97;100.00;98025.84;2619965;28;19943;-83
2023/07/15 02:36:58;;;;;;;;;;;;;;;13.98;100.00;98033.69;2619384;28;19982;-84
2023/07/15 02:38:14;;;;;;;;;;;;;;;13.89;100.00;98036.75;2619862;28;19951;-83
2023/07/15 02:39:29;;;;;;;;;;;;;;;13.90;100.00;98035.81;2619146;28;19929;-84
2023/07/15 02:40:48;;;;;;;;;;;;;;;13.79;100.00;98038.09;2619652;28;19939;-83
2023/07/15 02:42:04;;;;;;;;;;;;;;;13.80;100.00;98037.19;2617379;28;20023;-83
2023/07/15 02:43:19;;;;;;;;;;;;;;;13.75;100.00;98036.56;2618363;28;19935;-83
2023/07/15 02:44:35;;;;;;;;;;;;;;;13.80;100.00;98042.44;2618605;28;19958;-83
2023/07/15 02:45:51;;;;;;;;;;;;;;;13.81;100.00;98041.50;2619247;28;19928;-83
2023/07/15 02:47:06;;;;;;;;;;;;;;;13.82;100.00;98035.31;2620286;28;19982;-83
2023/07/15 02:48:21;;;;;;;;;;;;;;;13.80;100.00;98039.81;2620006;28;19934;-83
2023/07/15 02:49:37;;;;;;;;;;;;;;;13.81;100.00;98041.50;2619002;28;19932;-83
2023/07/15 02:50:55;;;;;;;;;;;;;;;13.73;100.00;98043.66;2619645;28;20338;-83
2023/07/15 02:52:11;;;;;;;;;;;;;;;13.62;100.00;98047.66;2619447;28;19982;-83
2023/07/15 02:53:26;;;;;;;;;;;;;;;13.57;100.00;98049.66;2619644;28;19924;-83
2023/07/15 02:54:41;;;;;;;;;;;;;;;13.67;100.00;98047.44;2619420;28;20280;-83
2023/07/15 02:55:57;;;;;;;;;;;;;;;13.51;100.00;98049.91;2618833;28;20504;-83
2023/07/15 02:57:12;;;;;;;;;;;;;;;13.42;100.00;98048.53;2619944;28;20398;-83
2023/07/15 02:58:28;;;;;;;;;;;;;;;13.49;100.00;98047.38;2619244;28;19971;-83
2023/07/15 02:59:43;;;;;;;;;;;;;;;13.38;100.00;98047.00;2619536;28;19939;-83
2023/07/15 03:00:59;;;;;;;;;;;;;;;13.50;100.00;98053.47;2619111;28;20295;-84
2023/07/15 03:02:14;;;;;;;;;;;;;;;13.45;100.00;98045.78;2619427;28;20449;-85
2023/07/15 03:03:30;;;;;;;;;;;;;;;13.27;100.00;98052.75;2618990;28;19928;-83
2023/07/15 03:04:46;;;;;;;;;;;;;;;13.32;100.00;98050.75;2618730;28;19932;-83
2023/07/15 03:06:02;;;;;;;;;;;;;;;13.30;100.00;98052.59;2619039;28;19994;-83
2023/07/15 03:07:18;;;;;;;;;;;;;;;13.22;100.00;98057.34;2619674;28;19932;-83
2023/07/15 03:08:33;;;;;;;;;;;;;;;13.09;100.00;98054.41;2619398;28;19931;-83
2023/07/15 03:09:48;;;;;;;;;;;;;;;12.94;100.00;98050.69;2619604;28;19925;-83
2023/07/15 03:11:10;;;;;;;;;;;;;;;12.96;100.00;98059.34;2619313;28;19925;-83
2023/07/15 03:12:25;;;;;;;;;;;;;;;13.08;100.00;98057.97;2619575;28;19932;-83
2023/07/15 03:13:41;;;;;;;;;;;;;;;12.95;100.00;98053.25;2618468;28;19928;-84
2023/07/15 03:14:57;;;;;;;;;;;;;;;13.11;100.00;98060.44;2619574;28;20419;-84
2023/07/15 03:16:12;;;;;;;;;;;;;;;13.25;100.00;98059.81;2619086;28;19935;-85
2023/07/15 03:17:30;;;;;;;;;;;;;;;13.16;100.00;98057.63;2619845;28;19939;-83
2023/07/15 03:18:45;;;;;;;;;;;;;;;13.05;100.00;98058.94;2619146;28;19924;-83
2023/07/15 03:20:04;;;;;;;;;;;;;;;13.04;100.00;98054.63;2618928;28;20039;-83
2023/07/15 03:21:20;;;;;;;;;;;;;;;13.18;100.00;98061.88;2619668;28;19925;-83
2023/07/15 03:22:35;;;;;;;;;;;;;;;13.11;100.00;98060.44;2618795;28;20579;-83
2023/07/15 03:23:51;;;;;;;;;;;;;;;12.97;100.00;98063.69;2618727;28;19932;-83
2023/07/15 03:25:07;;;;;;;;;;;;;;;12.96;100.00;98059.34;2619036;28;19928;-83
2023/07/15 03:26:22;;;;;;;;;;;;;;;12.99;100.00;98062.69;2619149;28;19929;-83
2023/07/15 03:27:38;;;;;;;;;;;;;;;12.93;100.00;98059.47;2618310;28;19956;-83
2023/07/15 03:28:53;;;;;;;;;;;;;;;12.98;100.00;98055.72;2618160;28;20391;-83
2023/07/15 03:30:09;;;;;;;;;;;;;;;13.05;100.00;98058.06;2618380;28;19933;-83
2023/07/15 03:31:24;;;;;;;;;;;;;;;13.25;100.00;98065.06;2618463;28;19932;-83
2023/07/15 03:32:40;;;;;;;;;;;;;;;13.31;100.00;98067.44;2618428;28;19934;-82
2023/07/15 03:33:55;;;;;;;;;;;;;;;13.36;100.00;98067.25;2617748;28;19950;-83
2023/07/15 03:35:12;;;;;;;;;;;;;;;13.38;100.00;98062.75;2618952;28;19924;-83
2023/07/15 03:36:27;;;;;;;;;;;;;;;13.31;100.00;98063.94;2618771;28;20009;-83
2023/07/15 03:37:43;;;;;;;;;;;;;;;13.22;100.00;98054.69;2617981;28;20006;-83
2023/07/15 03:38:59;;;;;;;;;;;;;;;13.31;100.00;98064.81;2619051;28;20489;-83
2023/07/15 03:40:15;;;;;;;;;;;;;;;13.34;100.00;98064.66;2618365;28;19929;-83
2023/07/15 03:41:30;;;;;;;;;;;;;;;13.29;100.00;98061.41;2617042;28;19928;-82
2023/07/15 03:42:45;;;;;;;;;;;;;;;13.17;100.00;98061.97;2617497;28;19956;-83
2023/07/15 03:44:01;;;;;;;;;;;;;;;13.27;100.00;98068.50;2618117;28;19932;-83
2023/07/15 03:45:16;;;;;;;;;;;;;;;13.32;100.00;98068.28;2618594;28;19924;-83
2023/07/15 03:46:32;;;;;;;;;;;;;;;13.18;100.00;98066.28;2618645;28;19931;-83
2023/07/15 03:47:48;;;;;;;;;;;;;;;13.22;100.00;98070.47;2618691;28;20236;-83
2023/07/15 03:49:03;;;;;;;;;;;;;;;13.24;100.00;98063.38;2618161;28;19935;-82
2023/07/15 03:50:19;;;;;;;;;;;;;;;13.40;100.00;98064.38;2618990;28;20299;-83
2023/07/15 03:51:35;;;;;;;;;;;;;;;13.47;100.00;98066.78;2617885;28;19943;-83
2023/07/15 03:52:50;;;;;;;;;;;;;;;13.51;100.00;98066.56;2618481;28;20228;-83
2023/07/15 03:54:05;;;;;;;;;;;;;;;13.57;100.00;98068.06;2619738;28;20015;-83
2023/07/15 03:55:21;;;;;;;;;;;;;;;13.53;100.00;98071.75;2619218;28;19940;-83
2023/07/15 03:56:36;;;;;;;;;;;;;;;13.56;100.00;98066.38;2618945;28;19924;-83
2023/07/15 03:57:52;;;;;;;;;;;;;;;13.56;100.00;98074.25;2619496;28;20368;-83
2023/07/15 03:59:07;;;;;;;;;;;;;;;13.60;100.00;98073.19;2619029;28;20013;-84
2023/07/15 04:00:23;;;;;;;;;;;;;;;13.56;100.00;98069.00;2619243;28;19932;-83
2023/07/15 04:01:38;;;;;;;;;;;;;;;13.65;100.00;98070.34;2619810;28;20022;-83
2023/07/15 04:02:55;;;;;;;;;;;;;;;13.71;100.00;98075.28;2619199;28;19925;-83
2023/07/15 04:04:11;;;;;;;;;;;;;;;13.75;100.00;98073.38;2618503;28;19928;-83
2023/07/15 04:05:27;;;;;;;;;;;;;;;13.79;100.00;98074.94;2619495;28;19940;-83
2023/07/15 04:06:43;;;;;;;;;;;;;;;13.84;100.00;98067.69;2619334;28;20372;-83
2023/07/15 04:07:58;;;;;;;;;;;;;;;13.92;100.00;98076.06;2619257;28;20403;-83
2023/07/15 04:09:16;;;;;;;;;;;;;;;13.90;100.00;98072.66;2619241;28;19928;-83
2023/07/15 04:10:31;;;;;;;;;;;;;;;13.92;100.00;98070.81;2618429;28;19928;-83
2023/07/15 04:11:46;;;;;;;;;;;;;;;13.87;100.00;98072.81;2618866;28;20780;-83
2023/07/15 04:13:02;;;;;;;;;;;;;;;13.82;100.00;98070.38;2618815;28;19932;-84
2023/07/15 04:14:17;;;;;;;;;;;;;;;13.92;100.00;98070.81;2618634;28;19929;-83
2023/07/15 04:15:33;;;;;;;;;;;;;;;13.90;100.00;98069.16;2618607;28;19925;-84
2023/07/15 04:16:48;;;;;;;;;;;;;;;13.83;100.00;98072.09;2619122;28;20407;-83
2023/07/15 04:18:03;;;;;;;;;;;;;;;13.85;100.00;98069.41;2619251;28;19925;-84
2023/07/15 04:19:19;;;;;;;;;;;;;;;13.88;100.00;98064.00;2619427;28;19925;-84
2023/07/15 04:20:34;;;;;;;;;;;;;;;13.92;100.00;98065.53;2618629;28;19936;-84
2023/07/15 04:21:50;;;;;;;;;;;;;;;14.02;100.00;98065.94;2618363;28;20307;-83
2023/07/15 04:23:05;;;;;;;;;;;;;;;13.79;100.00;98069.69;2619022;28;19986;-85
2023/07/15 04:24:21;;;;;;;;;;;;;;;13.79;100.00;98072.31;2619616;28;19928;-85
2023/07/15 04:25:36;;;;;;;;;;;;;;;13.71;100.00;98067.41;2618648;28;19974;-85
2023/07/15 04:26:51;;;;;;;;;;;;;;;13.69;100.00;98070.13;2619380;28;19928;-85
2023/07/15 04:28:07;;;;;;;;;;;;;;;13.64;100.00;98063.38;2619384;28;19967;-85
2023/07/15 04:29:22;;;;;;;;;;;;;;;13.70;100.00;98071.84;2619532;28;19928;-85
2023/07/15 04:30:37;;;;;;;;;;;;;;;13.66;100.00;98067.63;2619107;28;19944;-85
2023/07/15 04:31:53;;;;;;;;;;;;;;;14.10;100.00;98068.19;2619095;28;19968;-85
2023/07/15 04:33:08;;;;;;;;;;;;;;;14.22;100.00;98066.78;2618553;28;19928;-87
2023/07/15 04:34:24;;;;;;;;;;;;;;;14.15;100.00;98074.13;2619065;28;19935;-86
2023/07/15 04:35:40;;;;;;;;;;;;;;;13.98;100.00;98070.53;2619037;28;19928;-85
2023/07/15 04:36:56;;;;;;;;;;;;;;;14.02;100.00;98073.00;2619567;28;19928;-86
2023/07/15 04:38:11;;;;;;;;;;;;;;;13.92;100.00;98070.81;2619541;28;19930;-86
2023/07/15 04:39:27;;;;;;;;;;;;;;;14.16;100.00;98065.28;2619387;28;19978;-86
2023/07/15 04:40:42;;;;;;;;;;;;;;;14.16;100.00;98059.16;2618849;28;19939;-88
2023/07/15 04:41:58;;;;;;;;;;;;;;;14.11;100.00;98060.25;2618199;28;20021;-86
2023/07/15 04:43:13;;;;;;;;;;;;;;;14.21;100.00;98060.63;2619372;28;19928;-86
2023/07/15 04:44:30;;;;;;;;;;;;;;;14.33;100.00;98063.59;2619363;28;19974;-86
2023/07/15 04:45:46;;;;;;;;;;;;;;;14.14;100.00;98067.16;2620049;28;19928;-86
2023/07/15 04:47:01;;;;;;;;;;;;;;;14.12;100.00;98067.22;2620116;28;19932;-86
2023/07/15 04:48:17;;;;;;;;;;;;;;;14.20;100.00;98068.63;2621179;28;19928;-87
2023/07/15 04:49:33;;;;;;;;;;;;;;;14.34;100.00;98065.31;2621285;28;20478;-86
2023/07/15 04:50:48;;;;;;;;;;;;;;;14.42;100.00;98068.41;2621682;28;19932;-86
2023/07/15 04:52:04;;;;;;;;;;;;;;;14.54;100.00;98066.94;2621075;28;19934;-86
2023/07/15 04:53:20;;;;;;;;;;;;;;;14.60;100.00;98068.41;2621084;28;19940;-86
2023/07/15 04:54:35;;;;;;;;;;;;;;;14.50;100.00;98073.31;2620777;28;19935;-87
2023/07/15 04:55:50;;;;;;;;;;;;;;;14.61;100.00;98073.63;2619899;28;19929;-86
2023/07/15 04:57:07;;;;;;;;;;;;;;;14.78;100.00;98080.69;2620919;28;20376;-86
2023/07/15 04:58:22;;;;;;;;;;;;;;;14.79;100.00;98068.38;2619848;28;19924;-87
2023/07/15 04:59:38;;;;;;;;;;;;;;;14.73;100.00;98071.31;2619763;28;20022;-86
2023/07/15 05:00:53;;;;;;;;;;;;;;;14.80;100.00;98072.72;2620822;28;19928;-87
2023/07/15 05:02:09;;;;;;;;;;;;;;;14.80;100.00;98073.53;2620109;28;19928;-87
2023/07/15 05:03:24;;;;;;;;;;;;;;;14.89;100.00;98079.28;2621114;28;19943;-87
2023/07/15 05:04:40;;;;;;;;;;;;;;;14.85;100.00;98080.38;2620269;28;20415;-86
2023/07/15 05:05:55;;;;;;;;;;;;;;;15.02;100.00;98087.44;2620886;28;19928;-86
2023/07/15 05:07:10;;;;;;;;;;;;;;;14.87;100.00;98083.78;2620441;28;19935;-87
2023/07/15 05:08:26;;;;;;;;;;;;;;;15.17;100.00;98096.31;2620281;28;19934;-88
2023/07/15 05:09:42;;;;;;;;;;;;;;;15.47;100.00;98085.06;2620303;28;19944;-88
2023/07/15 05:10:57;;;;;;;;;;;;;;;15.59;100.00;98088.84;2619890;28;19960;-86
2023/07/15 05:12:13;;;;;;;;;;;;;;;15.58;100.00;98098.53;2620019;28;19931;-87
2023/07/15 05:13:29;;;;;;;;;;;;;;;15.67;100.00;98092.75;2620721;28;19963;-87
2023/07/15 05:14:44;;;;;;;;;;;;;;;15.78;100.00;98100.06;2621372;28;19931;-87
2023/07/15 05:16:00;;;;;;;;;;;;;;;15.80;100.00;98092.09;2621426;28;19929;-88
2023/07/15 05:17:15;;;;;;;;;;;;;;;15.77;100.00;98094.88;2620427;28;19928;-88
2023/07/15 05:18:31;;;;;;;;;;;;;;;15.67;100.00;98092.75;2620893;28;20296;-88
2023/07/15 05:19:46;;;;;;;;;;;;;;;15.67;100.00;98094.53;2621199;28;20444;-87
2023/07/15 05:21:02;;;;;;;;;;;;;;;15.89;100.00;98096.88;2620959;28;19928;-85
2023/07/15 05:22:18;;;;;;;;;;;;;;;15.92;100.00;98087.94;2619939;28;19958;-87
2023/07/15 05:23:33;;;;;;;;;;;;;;;15.84;100.00;98092.75;2619660;28;19939;-88
2023/07/15 05:24:49;;;;;;;;;;;;;;;16.02;100.00;98096.19;2620066;28;19939;-87
2023/07/15 05:26:04;;;;;;;;;;;;;;;16.10;100.00;98092.19;2621309;28;19983;-87
2023/07/15 05:27:20;;;;;;;;;;;;;;;16.14;100.00;98092.88;2621185;28;20315;-87
2023/07/15 05:28:35;;;;;;;;;;;;;;;16.27;100.00;98087.72;2621028;28;19935;-87
2023/07/15 05:29:51;;;;;;;;;;;;;;;16.29;100.00;98085.88;2620817;28;20288;-87
2023/07/15 05:31:06;;;;;;;;;;;;;;;16.20;100.00;98092.53;2620966;28;19929;-88
2023/07/15 05:32:21;;;;;;;;;;;;;;;16.35;100.00;98087.31;2620849;28;20364;-87
2023/07/15 05:33:37;;;;;;;;;;;;;;;16.18;100.00;98094.38;2621505;28;20005;-87
2023/07/15 05:34:52;;;;;;;;;;;;;;;16.44;100.00;98089.41;2620569;28;19951;-88
2023/07/15 05:36:08;;;;;;;;;;;;;;;16.33;100.00;98089.16;2620908;28;20719;-87
2023/07/15 05:37:23;;;;;;;;;;;;;;;16.52;100.00;98089.81;2621283;28;19936;-87
2023/07/15 05:38:42;;;;;;;;;;;;;;;16.67;100.00;98088.06;2620772;28;19929;-87
2023/07/15 05:39:58;;;;;;;;;;;;;;;16.80;100.00;98096.13;2620973;28;19932;-87
2023/07/15 05:41:13;;;;;;;;;;;;;;;17.05;100.00;98080.63;2620191;28;20284;-87
2023/07/15 05:42:28;;;;;;;;;;;;;;;16.96;100.00;98084.63;2620574;28;20638;-88
2023/07/15 05:43:44;;;;;;;;;;;;;;;17.07;100.00;98084.88;2620100;28;19939;-87
2023/07/15 05:44:59;;;;;;;;;;;;;;;17.15;100.00;98083.53;2620438;28;19928;-87
2023/07/15 05:46:15;;;;;;;;;;;;;;;17.27;100.00;98087.25;2620622;28;19974;-86
2023/07/15 05:47:30;;;;;;;;;;;;;;;17.34;100.00;98089.44;2620509;28;20054;-87
2023/07/15 05:48:46;;;;;;;;;;;;;;;17.28;100.00;98084.50;2620109;28;19935;-86
2023/07/15 05:50:01;;;;;;;;;;;;;;;17.54;96.70;98087.34;2620785;28;19989;-87
2023/07/15 05:51:17;;;;;;;;;;;;;;;17.60;94.68;98081.66;2620980;28;19931;-87
2023/07/15 05:52:33;;;;;;;;;;;;;;;17.67;92.51;98076.84;2620861;28;19925;-87
2023/07/15 05:53:48;;;;;;;;;;;;;;;17.72;92.12;98077.38;2620420;28;19929;-87
2023/07/15 05:55:04;;;;;;;;;;;;;;;17.79;90.79;98077.84;2619517;28;19963;-87
2023/07/15 05:56:20;;;;;;;;;;;;;;;18.02;88.78;98075.50;2620088;28;19929;-87
2023/07/15 05:57:35;;;;;;;;;;;;;;;18.07;88.71;98076.94;2621630;28;19935;-87
2023/07/15 05:58:51;;;;;;;;;;;;;;;18.13;86.37;98075.69;2619940;28;20328;-87
2023/07/15 06:00:08;;;;;;;;;;;;;;;18.30;86.31;98077.25;2620542;28;19929;-87
2023/07/15 06:01:23;;;;;;;;;;;;;;;18.20;84.80;98082.31;2620387;28;19924;-87
2023/07/15 06:02:38;;;;;;;;;;;;;;;18.38;81.00;98082.03;2620973;28;19956;-88
2023/07/15 06:03:54;;;;;;;;;;;;;;;18.46;78.73;98077.09;2620394;28;20387;-87
2023/07/15 06:05:10;;;;;;;;;;;;;;;18.58;76.89;98083.38;2620837;28;20399;-87
2023/07/15 06:06:25;;;;;;;;;;;;;;;18.61;76.74;98077.84;2619717;28;19951;-88
2023/07/15 06:07:40;;;;;;;;;;;;;;;18.63;77.05;98080.41;2617717;28;20424;-88
2023/07/15 06:08:56;;;;;;;;;;;;;;;18.85;75.86;98086.91;2620406;28;19932;-87
2023/07/15 06:10:11;;;;;;;;;;;;;;;18.94;74.04;98075.69;2619393;28;20681;-88
2023/07/15 06:11:27;;;;;;;;;;;;;;;19.02;72.70;98080.50;2619392;28;20145;-87
2023/07/15 06:12:42;;;;;;;;;;;;;;;19.21;72.33;98082.72;2620537;28;20371;-88
2023/07/15 06:14:00;;;;;;;;;;;;;;;19.31;71.17;98091.75;2620781;28;19939;-88
2023/07/15 06:15:16;;;;;;;;;;;;;;;19.37;69.32;98087.81;2620237;28;19929;-88
2023/07/15 06:16:32;;;;;;;;;;;;;;;19.39;68.74;98085.03;2625355;28;19971;-88
2023/07/15 06:17:47;;;;;;;;;;;;;;;19.51;68.25;98088.66;2616267;28;19978;-88
2023/07/15 06:19:02;;;;;;;;;;;;;;;19.67;67.11;98088.41;2620000;28;20415;-88
2023/07/15 06:20:18;;;;;;;;;;;;;;;19.78;65.89;98087.66;2620778;28;19939;-88
2023/07/15 06:21:35;;;;;;;;;;;;;;;19.68;66.26;98090.97;2620929;28;19924;-88
2023/07/15 06:22:51;;;;;;;;;;;;;;;19.68;64.84;98087.44;2620082;28;20023;-89
2023/07/15 06:24:06;;;;;;;;;;;;;;;19.68;65.47;98084.78;2619441;28;19928;-88
2023/07/15 06:25:22;;;;;;;;;;;;;;;20.01;63.52;98091.34;2619598;28;20511;-88
2023/07/15 06:26:37;;;;;;;;;;;;;;;20.06;64.06;98089.19;2621030;28;19929;-88
2023/07/15 06:27:52;;;;;;;;;;;;;;;20.25;62.53;98095.78;2620720;28;19982;-88
2023/07/15 06:29:08;;;;;;;;;;;;;;;20.20;62.55;98093.50;2619832;28;20022;-88
2023/07/15 06:30:25;;;;;;;;;;;;;;;20.34;60.95;98102.28;2620017;28;19977;-88
2023/07/15 06:31:41;;;;;;;;;;;;;;;20.55;60.43;98089.19;2620757;28;20070;-88
2023/07/15 06:32:56;;;;;;;;;;;;;;;20.54;60.21;98091.00;2620064;28;19965;-86